<?xml version="1.0" encoding="UTF-8" standalone="no" ?>
<gpx xmlns="http://www.topografix.com/GPX/1/1" xmlns:xsi="http://www.w3.org/2001/XMLSchema-instance" xsi:schemaLocation="http://www.topografix.com/GPX/1/1 http://www.topografix.com/GPX/1/1/gpx.xsd" version="1.1" creator="VisuGPX - https://www.visugpx.com">
  <metadata>
    <name>PUJAUDRAN Nord 7.8Km AV</name>
    <desc><![CDATA[Total: 7.7km]]></desc>
  </metadata>
  <trk>
    <name><![CDATA[PUJAUDRAN 7.8Km]]></name>
    <trkseg>
      <trkpt lat="43.59017" lon="1.15297">
        <ele>295</ele>
        <time>2020-06-06T09:11:43Z</time>
      </trkpt>
      <trkpt lat="43.58987" lon="1.15283">
        <ele>295</ele>
        <time>2020-06-06T09:12:08Z</time>
      </trkpt>
      <trkpt lat="43.58976" lon="1.1532">
        <ele>295</ele>
        <time>2020-06-06T09:12:32Z</time>
      </trkpt>
      <trkpt lat="43.58961" lon="1.15463">
        <ele>292</ele>
        <time>2020-06-06T09:13:55Z</time>
      </trkpt>
      <trkpt lat="43.58894" lon="1.15443">
        <ele>285</ele>
        <time>2020-06-06T09:14:50Z</time>
      </trkpt>
      <trkpt lat="43.58863" lon="1.15432">
        <ele>278</ele>
        <time>2020-06-06T09:15:17Z</time>
      </trkpt>
      <trkpt lat="43.58768" lon="1.15388">
        <ele>264</ele>
        <time>2020-06-06T09:16:37Z</time>
      </trkpt>
      <trkpt lat="43.58759" lon="1.15385">
        <ele>263</ele>
        <time>2020-06-06T09:16:45Z</time>
      </trkpt>
      <trkpt lat="43.5875" lon="1.15383">
        <ele>262</ele>
        <time>2020-06-06T09:16:52Z</time>
      </trkpt>
      <trkpt lat="43.58741" lon="1.1538">
        <ele>262</ele>
        <time>2020-06-06T09:16:59Z</time>
      </trkpt>
      <trkpt lat="43.58732" lon="1.15373">
        <ele>263</ele>
        <time>2020-06-06T09:17:08Z</time>
      </trkpt>
      <trkpt lat="43.58722" lon="1.1537">
        <ele>263</ele>
        <time>2020-06-06T09:17:16Z</time>
      </trkpt>
      <trkpt lat="43.5868" lon="1.15366">
        <ele>264</ele>
        <time>2020-06-06T09:17:50Z</time>
      </trkpt>
      <trkpt lat="43.58677" lon="1.15323">
        <ele>267</ele>
        <time>2020-06-06T09:18:15Z</time>
      </trkpt>
      <trkpt lat="43.58674" lon="1.15231">
        <ele>275</ele>
        <time>2020-06-06T09:19:09Z</time>
      </trkpt>
      <trkpt lat="43.58674" lon="1.15191">
        <ele>280</ele>
        <time>2020-06-06T09:19:33Z</time>
      </trkpt>
      <trkpt lat="43.58676" lon="1.15151">
        <ele>284</ele>
        <time>2020-06-06T09:19:56Z</time>
      </trkpt>
      <trkpt lat="43.58681" lon="1.151">
        <ele>288</ele>
        <time>2020-06-06T09:20:26Z</time>
      </trkpt>
      <trkpt lat="43.58682" lon="1.15087">
        <ele>289</ele>
        <time>2020-06-06T09:20:34Z</time>
      </trkpt>
      <trkpt lat="43.58684" lon="1.15069">
        <ele>290</ele>
        <time>2020-06-06T09:20:44Z</time>
      </trkpt>
      <trkpt lat="43.5869" lon="1.15032">
        <ele>292</ele>
        <time>2020-06-06T09:21:07Z</time>
      </trkpt>
      <trkpt lat="43.58692" lon="1.15018">
        <ele>292</ele>
        <time>2020-06-06T09:21:15Z</time>
      </trkpt>
      <trkpt lat="43.58708" lon="1.14878">
        <ele>295</ele>
        <time>2020-06-06T09:22:37Z</time>
      </trkpt>
      <trkpt lat="43.5872" lon="1.14841">
        <ele>296</ele>
        <time>2020-06-06T09:23:01Z</time>
      </trkpt>
      <trkpt lat="43.58733" lon="1.14795">
        <ele>297</ele>
        <time>2020-06-06T09:23:29Z</time>
      </trkpt>
      <trkpt lat="43.58738" lon="1.1478">
        <ele>298</ele>
        <time>2020-06-06T09:23:39Z</time>
      </trkpt>
      <trkpt lat="43.58753" lon="1.14762">
        <ele>298</ele>
        <time>2020-06-06T09:23:55Z</time>
      </trkpt>
      <trkpt lat="43.58768" lon="1.14744">
        <ele>298</ele>
        <time>2020-06-06T09:24:11Z</time>
      </trkpt>
      <trkpt lat="43.58775" lon="1.14734">
        <ele>299</ele>
        <time>2020-06-06T09:24:19Z</time>
      </trkpt>
      <trkpt lat="43.58796" lon="1.14712">
        <ele>300</ele>
        <time>2020-06-06T09:24:40Z</time>
      </trkpt>
      <trkpt lat="43.58819" lon="1.14685">
        <ele>300</ele>
        <time>2020-06-06T09:25:05Z</time>
      </trkpt>
      <trkpt lat="43.58935" lon="1.14544">
        <ele>299</ele>
        <time>2020-06-06T09:27:08Z</time>
      </trkpt>
      <trkpt lat="43.5896" lon="1.14587">
        <ele>299</ele>
        <time>2020-06-06T09:27:40Z</time>
      </trkpt>
      <trkpt lat="43.59004" lon="1.14497">
        <ele>294</ele>
        <time>2020-06-06T09:28:43Z</time>
      </trkpt>
      <trkpt lat="43.59004" lon="1.14475">
        <ele>293</ele>
        <time>2020-06-06T09:28:56Z</time>
      </trkpt>
      <trkpt lat="43.58999" lon="1.1446">
        <ele>292</ele>
        <time>2020-06-06T09:29:06Z</time>
      </trkpt>
      <trkpt lat="43.58994" lon="1.14452">
        <ele>291</ele>
        <time>2020-06-06T09:29:12Z</time>
      </trkpt>
      <trkpt lat="43.58973" lon="1.14435">
        <ele>289</ele>
        <time>2020-06-06T09:29:31Z</time>
      </trkpt>
      <trkpt lat="43.58945" lon="1.14411">
        <ele>285</ele>
        <time>2020-06-06T09:29:58Z</time>
      </trkpt>
      <trkpt lat="43.58947" lon="1.14372">
        <ele>278</ele>
        <time>2020-06-06T09:30:21Z</time>
      </trkpt>
      <trkpt lat="43.58955" lon="1.1432">
        <ele>272</ele>
        <time>2020-06-06T09:30:52Z</time>
      </trkpt>
      <trkpt lat="43.58966" lon="1.14256">
        <ele>265</ele>
        <time>2020-06-06T09:31:31Z</time>
      </trkpt>
      <trkpt lat="43.58973" lon="1.14202">
        <ele>259</ele>
        <time>2020-06-06T09:32:03Z</time>
      </trkpt>
      <trkpt lat="43.58959" lon="1.1417">
        <ele>255</ele>
        <time>2020-06-06T09:32:25Z</time>
      </trkpt>
      <trkpt lat="43.58969" lon="1.14153">
        <ele>253</ele>
        <time>2020-06-06T09:32:38Z</time>
      </trkpt>
      <trkpt lat="43.58992" lon="1.14143">
        <ele>252</ele>
        <time>2020-06-06T09:32:57Z</time>
      </trkpt>
      <trkpt lat="43.59013" lon="1.14154">
        <ele>254</ele>
        <time>2020-06-06T09:33:15Z</time>
      </trkpt>
      <trkpt lat="43.59041" lon="1.14174">
        <ele>258</ele>
        <time>2020-06-06T09:33:41Z</time>
      </trkpt>
      <trkpt lat="43.5907" lon="1.14201">
        <ele>264</ele>
        <time>2020-06-06T09:34:09Z</time>
      </trkpt>
      <trkpt lat="43.59092" lon="1.14224">
        <ele>269</ele>
        <time>2020-06-06T09:34:31Z</time>
      </trkpt>
      <trkpt lat="43.59099" lon="1.14244">
        <ele>271</ele>
        <time>2020-06-06T09:34:44Z</time>
      </trkpt>
      <trkpt lat="43.59092" lon="1.1427">
        <ele>272</ele>
        <time>2020-06-06T09:35:00Z</time>
      </trkpt>
      <trkpt lat="43.59078" lon="1.1431">
        <ele>275</ele>
        <time>2020-06-06T09:35:27Z</time>
      </trkpt>
      <trkpt lat="43.59046" lon="1.14399">
        <ele>285</ele>
        <time>2020-06-06T09:36:25Z</time>
      </trkpt>
      <trkpt lat="43.59023" lon="1.14464">
        <ele>291</ele>
        <time>2020-06-06T09:37:07Z</time>
      </trkpt>
      <trkpt lat="43.59003" lon="1.14509">
        <ele>295</ele>
        <time>2020-06-06T09:37:38Z</time>
      </trkpt>
      <trkpt lat="43.58982" lon="1.14551">
        <ele>296</ele>
        <time>2020-06-06T09:38:07Z</time>
      </trkpt>
      <trkpt lat="43.58962" lon="1.14592">
        <ele>299</ele>
        <time>2020-06-06T09:38:36Z</time>
      </trkpt>
      <trkpt lat="43.58973" lon="1.1462">
        <ele>298</ele>
        <time>2020-06-06T09:38:55Z</time>
      </trkpt>
      <trkpt lat="43.59" lon="1.1468">
        <ele>295</ele>
        <time>2020-06-06T09:39:35Z</time>
      </trkpt>
      <trkpt lat="43.59023" lon="1.14742">
        <ele>295</ele>
        <time>2020-06-06T09:40:16Z</time>
      </trkpt>
      <trkpt lat="43.59051" lon="1.14806">
        <ele>297</ele>
        <time>2020-06-06T09:41:00Z</time>
      </trkpt>
      <trkpt lat="43.59064" lon="1.1484">
        <ele>298</ele>
        <time>2020-06-06T09:41:22Z</time>
      </trkpt>
      <trkpt lat="43.59089" lon="1.14897">
        <ele>300</ele>
        <time>2020-06-06T09:42:01Z</time>
      </trkpt>
      <trkpt lat="43.59105" lon="1.14918">
        <ele>300</ele>
        <time>2020-06-06T09:42:19Z</time>
      </trkpt>
      <trkpt lat="43.59115" lon="1.14924">
        <ele>300</ele>
        <time>2020-06-06T09:42:27Z</time>
      </trkpt>
      <trkpt lat="43.59124" lon="1.14928">
        <ele>300</ele>
        <time>2020-06-06T09:42:35Z</time>
      </trkpt>
      <trkpt lat="43.59133" lon="1.14935">
        <ele>300</ele>
        <time>2020-06-06T09:42:43Z</time>
      </trkpt>
      <trkpt lat="43.59142" lon="1.14939">
        <ele>300</ele>
        <time>2020-06-06T09:42:51Z</time>
      </trkpt>
      <trkpt lat="43.5915" lon="1.14947">
        <ele>300</ele>
        <time>2020-06-06T09:42:59Z</time>
      </trkpt>
      <trkpt lat="43.59135" lon="1.15005">
        <ele>300</ele>
        <time>2020-06-06T09:43:35Z</time>
      </trkpt>
      <trkpt lat="43.59168" lon="1.15021">
        <ele>299</ele>
        <time>2020-06-06T09:44:03Z</time>
      </trkpt>
      <trkpt lat="43.59179" lon="1.14983">
        <ele>300</ele>
        <time>2020-06-06T09:44:27Z</time>
      </trkpt>
      <trkpt lat="43.59184" lon="1.15004">
        <ele>299</ele>
        <time>2020-06-06T09:44:40Z</time>
      </trkpt>
      <trkpt lat="43.59193" lon="1.15023">
        <ele>298</ele>
        <time>2020-06-06T09:44:53Z</time>
      </trkpt>
      <trkpt lat="43.59216" lon="1.15063">
        <ele>296</ele>
        <time>2020-06-06T09:45:23Z</time>
      </trkpt>
      <trkpt lat="43.59251" lon="1.15117">
        <ele>293</ele>
        <time>2020-06-06T09:46:06Z</time>
      </trkpt>
      <trkpt lat="43.5926" lon="1.15108">
        <ele>293</ele>
        <time>2020-06-06T09:46:15Z</time>
      </trkpt>
      <trkpt lat="43.59279" lon="1.15093">
        <ele>294</ele>
        <time>2020-06-06T09:46:32Z</time>
      </trkpt>
      <trkpt lat="43.59294" lon="1.15094">
        <ele>294</ele>
        <time>2020-06-06T09:46:44Z</time>
      </trkpt>
      <trkpt lat="43.59304" lon="1.15104">
        <ele>293</ele>
        <time>2020-06-06T09:46:54Z</time>
      </trkpt>
      <trkpt lat="43.59318" lon="1.15126">
        <ele>293</ele>
        <time>2020-06-06T09:47:11Z</time>
      </trkpt>
      <trkpt lat="43.59339" lon="1.15119">
        <ele>294</ele>
        <time>2020-06-06T09:47:28Z</time>
      </trkpt>
      <trkpt lat="43.59357" lon="1.1512">
        <ele>295</ele>
        <time>2020-06-06T09:47:42Z</time>
      </trkpt>
      <trkpt lat="43.59382" lon="1.15121">
        <ele>295</ele>
        <time>2020-06-06T09:48:03Z</time>
      </trkpt>
      <trkpt lat="43.594" lon="1.15122">
        <ele>295</ele>
        <time>2020-06-06T09:48:17Z</time>
      </trkpt>
      <trkpt lat="43.59406" lon="1.1513">
        <ele>295</ele>
        <time>2020-06-06T09:48:24Z</time>
      </trkpt>
      <trkpt lat="43.5942" lon="1.15131">
        <ele>295</ele>
        <time>2020-06-06T09:48:35Z</time>
      </trkpt>
      <trkpt lat="43.59421" lon="1.15037">
        <ele>295</ele>
        <time>2020-06-06T09:49:29Z</time>
      </trkpt>
      <trkpt lat="43.5943" lon="1.15041">
        <ele>295</ele>
        <time>2020-06-06T09:49:36Z</time>
      </trkpt>
      <trkpt lat="43.5944" lon="1.15044">
        <ele>295</ele>
        <time>2020-06-06T09:49:45Z</time>
      </trkpt>
      <trkpt lat="43.59452" lon="1.15049">
        <ele>295</ele>
        <time>2020-06-06T09:49:54Z</time>
      </trkpt>
      <trkpt lat="43.59458" lon="1.15066">
        <ele>295</ele>
        <time>2020-06-06T09:50:06Z</time>
      </trkpt>
      <trkpt lat="43.5947" lon="1.15072">
        <ele>295</ele>
        <time>2020-06-06T09:50:15Z</time>
      </trkpt>
      <trkpt lat="43.59483" lon="1.15074">
        <ele>295</ele>
        <time>2020-06-06T09:50:26Z</time>
      </trkpt>
      <trkpt lat="43.59489" lon="1.15078">
        <ele>295</ele>
        <time>2020-06-06T09:50:31Z</time>
      </trkpt>
      <trkpt lat="43.59497" lon="1.15081">
        <ele>295</ele>
        <time>2020-06-06T09:50:38Z</time>
      </trkpt>
      <trkpt lat="43.59506" lon="1.15086">
        <ele>294</ele>
        <time>2020-06-06T09:50:46Z</time>
      </trkpt>
      <trkpt lat="43.59515" lon="1.15089">
        <ele>294</ele>
        <time>2020-06-06T09:50:53Z</time>
      </trkpt>
      <trkpt lat="43.59522" lon="1.15094">
        <ele>293</ele>
        <time>2020-06-06T09:51:00Z</time>
      </trkpt>
      <trkpt lat="43.59531" lon="1.15098">
        <ele>293</ele>
        <time>2020-06-06T09:51:07Z</time>
      </trkpt>
      <trkpt lat="43.59538" lon="1.15102">
        <ele>293</ele>
        <time>2020-06-06T09:51:13Z</time>
      </trkpt>
      <trkpt lat="43.59547" lon="1.15104">
        <ele>293</ele>
        <time>2020-06-06T09:51:20Z</time>
      </trkpt>
      <trkpt lat="43.59558" lon="1.15109">
        <ele>294</ele>
        <time>2020-06-06T09:51:29Z</time>
      </trkpt>
      <trkpt lat="43.59567" lon="1.15113">
        <ele>294</ele>
        <time>2020-06-06T09:51:37Z</time>
      </trkpt>
      <trkpt lat="43.59575" lon="1.15119">
        <ele>294</ele>
        <time>2020-06-06T09:51:45Z</time>
      </trkpt>
      <trkpt lat="43.59589" lon="1.15128">
        <ele>295</ele>
        <time>2020-06-06T09:51:57Z</time>
      </trkpt>
      <trkpt lat="43.59604" lon="1.1513">
        <ele>295</ele>
        <time>2020-06-06T09:52:09Z</time>
      </trkpt>
      <trkpt lat="43.59626" lon="1.15141">
        <ele>295</ele>
        <time>2020-06-06T09:52:28Z</time>
      </trkpt>
      <trkpt lat="43.59646" lon="1.15147">
        <ele>295</ele>
        <time>2020-06-06T09:52:44Z</time>
      </trkpt>
      <trkpt lat="43.59662" lon="1.15151">
        <ele>295</ele>
        <time>2020-06-06T09:52:57Z</time>
      </trkpt>
      <trkpt lat="43.59682" lon="1.15157">
        <ele>295</ele>
        <time>2020-06-06T09:53:13Z</time>
      </trkpt>
      <trkpt lat="43.59701" lon="1.15163">
        <ele>295</ele>
        <time>2020-06-06T09:53:29Z</time>
      </trkpt>
      <trkpt lat="43.59712" lon="1.15169">
        <ele>295</ele>
        <time>2020-06-06T09:53:38Z</time>
      </trkpt>
      <trkpt lat="43.59721" lon="1.15171">
        <ele>295</ele>
        <time>2020-06-06T09:53:46Z</time>
      </trkpt>
      <trkpt lat="43.59732" lon="1.15175">
        <ele>295</ele>
        <time>2020-06-06T09:53:55Z</time>
      </trkpt>
      <trkpt lat="43.59747" lon="1.15181">
        <ele>295</ele>
        <time>2020-06-06T09:54:07Z</time>
      </trkpt>
      <trkpt lat="43.59759" lon="1.15184">
        <ele>295</ele>
        <time>2020-06-06T09:54:17Z</time>
      </trkpt>
      <trkpt lat="43.59769" lon="1.15189">
        <ele>294</ele>
        <time>2020-06-06T09:54:25Z</time>
      </trkpt>
      <trkpt lat="43.59778" lon="1.15191">
        <ele>294</ele>
        <time>2020-06-06T09:54:32Z</time>
      </trkpt>
      <trkpt lat="43.59789" lon="1.15196">
        <ele>293</ele>
        <time>2020-06-06T09:54:42Z</time>
      </trkpt>
      <trkpt lat="43.59793" lon="1.15202">
        <ele>292</ele>
        <time>2020-06-06T09:54:47Z</time>
      </trkpt>
      <trkpt lat="43.59797" lon="1.15212">
        <ele>292</ele>
        <time>2020-06-06T09:54:53Z</time>
      </trkpt>
      <trkpt lat="43.59797" lon="1.15224">
        <ele>292</ele>
        <time>2020-06-06T09:55:01Z</time>
      </trkpt>
      <trkpt lat="43.59794" lon="1.15238">
        <ele>291</ele>
        <time>2020-06-06T09:55:09Z</time>
      </trkpt>
      <trkpt lat="43.59792" lon="1.15249">
        <ele>291</ele>
        <time>2020-06-06T09:55:16Z</time>
      </trkpt>
      <trkpt lat="43.5979" lon="1.15261">
        <ele>291</ele>
        <time>2020-06-06T09:55:23Z</time>
      </trkpt>
      <trkpt lat="43.59786" lon="1.15272">
        <ele>291</ele>
        <time>2020-06-06T09:55:30Z</time>
      </trkpt>
      <trkpt lat="43.59787" lon="1.15283">
        <ele>290</ele>
        <time>2020-06-06T09:55:37Z</time>
      </trkpt>
      <trkpt lat="43.59787" lon="1.15293">
        <ele>289</ele>
        <time>2020-06-06T09:55:43Z</time>
      </trkpt>
      <trkpt lat="43.59791" lon="1.15304">
        <ele>288</ele>
        <time>2020-06-06T09:55:50Z</time>
      </trkpt>
      <trkpt lat="43.59797" lon="1.15318">
        <ele>287</ele>
        <time>2020-06-06T09:55:59Z</time>
      </trkpt>
      <trkpt lat="43.59803" lon="1.15333">
        <ele>285</ele>
        <time>2020-06-06T09:56:09Z</time>
      </trkpt>
      <trkpt lat="43.59816" lon="1.15343">
        <ele>284</ele>
        <time>2020-06-06T09:56:21Z</time>
      </trkpt>
      <trkpt lat="43.59824" lon="1.15353">
        <ele>282</ele>
        <time>2020-06-06T09:56:30Z</time>
      </trkpt>
      <trkpt lat="43.5983" lon="1.1537">
        <ele>281</ele>
        <time>2020-06-06T09:56:41Z</time>
      </trkpt>
      <trkpt lat="43.59836" lon="1.15385">
        <ele>279</ele>
        <time>2020-06-06T09:56:51Z</time>
      </trkpt>
      <trkpt lat="43.59842" lon="1.15396">
        <ele>278</ele>
        <time>2020-06-06T09:56:59Z</time>
      </trkpt>
      <trkpt lat="43.59851" lon="1.15413">
        <ele>276</ele>
        <time>2020-06-06T09:57:12Z</time>
      </trkpt>
      <trkpt lat="43.59859" lon="1.15433">
        <ele>275</ele>
        <time>2020-06-06T09:57:24Z</time>
      </trkpt>
      <trkpt lat="43.59866" lon="1.15447">
        <ele>274</ele>
        <time>2020-06-06T09:57:35Z</time>
      </trkpt>
      <trkpt lat="43.5989" lon="1.15477">
        <ele>270</ele>
        <time>2020-06-06T09:58:01Z</time>
      </trkpt>
      <trkpt lat="43.5992" lon="1.15505">
        <ele>268</ele>
        <time>2020-06-06T09:58:29Z</time>
      </trkpt>
      <trkpt lat="43.59943" lon="1.15517">
        <ele>271</ele>
        <time>2020-06-06T09:58:49Z</time>
      </trkpt>
      <trkpt lat="43.59965" lon="1.15524">
        <ele>273</ele>
        <time>2020-06-06T09:59:07Z</time>
      </trkpt>
      <trkpt lat="43.59986" lon="1.15513">
        <ele>276</ele>
        <time>2020-06-06T09:59:26Z</time>
      </trkpt>
      <trkpt lat="43.60018" lon="1.15541">
        <ele>280</ele>
        <time>2020-06-06T09:59:56Z</time>
      </trkpt>
      <trkpt lat="43.60037" lon="1.15545">
        <ele>282</ele>
        <time>2020-06-06T10:00:12Z</time>
      </trkpt>
      <trkpt lat="43.60051" lon="1.1556">
        <ele>282</ele>
        <time>2020-06-06T10:00:26Z</time>
      </trkpt>
      <trkpt lat="43.60061" lon="1.1558">
        <ele>283</ele>
        <time>2020-06-06T10:00:40Z</time>
      </trkpt>
      <trkpt lat="43.60061" lon="1.15588">
        <ele>283</ele>
        <time>2020-06-06T10:00:45Z</time>
      </trkpt>
      <trkpt lat="43.6006" lon="1.1558">
        <ele>283</ele>
        <time>2020-06-06T10:00:50Z</time>
      </trkpt>
      <trkpt lat="43.60062" lon="1.1558">
        <ele>283</ele>
        <time>2020-06-06T10:00:51Z</time>
      </trkpt>
      <trkpt lat="43.60053" lon="1.15587">
        <ele>282</ele>
        <time>2020-06-06T10:00:59Z</time>
      </trkpt>
      <trkpt lat="43.60057" lon="1.15621">
        <ele>282</ele>
        <time>2020-06-06T10:01:19Z</time>
      </trkpt>
      <trkpt lat="43.60077" lon="1.15671">
        <ele>282</ele>
        <time>2020-06-06T10:01:52Z</time>
      </trkpt>
      <trkpt lat="43.60098" lon="1.15691">
        <ele>282</ele>
        <time>2020-06-06T10:02:13Z</time>
      </trkpt>
      <trkpt lat="43.60154" lon="1.1577">
        <ele>279</ele>
        <time>2020-06-06T10:03:16Z</time>
      </trkpt>
      <trkpt lat="43.60169" lon="1.15831">
        <ele>282</ele>
        <time>2020-06-06T10:03:54Z</time>
      </trkpt>
      <trkpt lat="43.60191" lon="1.15949">
        <ele>286</ele>
        <time>2020-06-06T10:05:05Z</time>
      </trkpt>
      <trkpt lat="43.60159" lon="1.1605">
        <ele>287</ele>
        <time>2020-06-06T10:06:09Z</time>
      </trkpt>
      <trkpt lat="43.60141" lon="1.16085">
        <ele>286</ele>
        <time>2020-06-06T10:06:34Z</time>
      </trkpt>
      <trkpt lat="43.60133" lon="1.16147">
        <ele>288</ele>
        <time>2020-06-06T10:07:10Z</time>
      </trkpt>
      <trkpt lat="43.60127" lon="1.16158">
        <ele>287</ele>
        <time>2020-06-06T10:07:19Z</time>
      </trkpt>
      <trkpt lat="43.60122" lon="1.1617">
        <ele>287</ele>
        <time>2020-06-06T10:07:26Z</time>
      </trkpt>
      <trkpt lat="43.60119" lon="1.16182">
        <ele>287</ele>
        <time>2020-06-06T10:07:34Z</time>
      </trkpt>
      <trkpt lat="43.60118" lon="1.16195">
        <ele>287</ele>
        <time>2020-06-06T10:07:41Z</time>
      </trkpt>
      <trkpt lat="43.60119" lon="1.16207">
        <ele>288</ele>
        <time>2020-06-06T10:07:49Z</time>
      </trkpt>
      <trkpt lat="43.60115" lon="1.16223">
        <ele>287</ele>
        <time>2020-06-06T10:07:59Z</time>
      </trkpt>
      <trkpt lat="43.60115" lon="1.16293">
        <ele>288</ele>
        <time>2020-06-06T10:08:39Z</time>
      </trkpt>
      <trkpt lat="43.60103" lon="1.16359">
        <ele>286</ele>
        <time>2020-06-06T10:09:19Z</time>
      </trkpt>
      <trkpt lat="43.60094" lon="1.16408">
        <ele>285</ele>
        <time>2020-06-06T10:09:48Z</time>
      </trkpt>
      <trkpt lat="43.60099" lon="1.16444">
        <ele>286</ele>
        <time>2020-06-06T10:10:10Z</time>
      </trkpt>
      <trkpt lat="43.60087" lon="1.16484">
        <ele>285</ele>
        <time>2020-06-06T10:10:35Z</time>
      </trkpt>
      <trkpt lat="43.60086" lon="1.16516">
        <ele>285</ele>
        <time>2020-06-06T10:10:54Z</time>
      </trkpt>
      <trkpt lat="43.60052" lon="1.16646">
        <ele>285</ele>
        <time>2020-06-06T10:12:14Z</time>
      </trkpt>
      <trkpt lat="43.6003" lon="1.16678">
        <ele>285</ele>
        <time>2020-06-06T10:12:40Z</time>
      </trkpt>
      <trkpt lat="43.60015" lon="1.16721">
        <ele>284</ele>
        <time>2020-06-06T10:13:07Z</time>
      </trkpt>
      <trkpt lat="43.60002" lon="1.16759">
        <ele>282</ele>
        <time>2020-06-06T10:13:31Z</time>
      </trkpt>
      <trkpt lat="43.59971" lon="1.16774">
        <ele>279</ele>
        <time>2020-06-06T10:13:58Z</time>
      </trkpt>
      <trkpt lat="43.5997" lon="1.16811">
        <ele>277</ele>
        <time>2020-06-06T10:14:20Z</time>
      </trkpt>
      <trkpt lat="43.59973" lon="1.1685">
        <ele>276</ele>
        <time>2020-06-06T10:14:42Z</time>
      </trkpt>
      <trkpt lat="43.59962" lon="1.16865">
        <ele>273</ele>
        <time>2020-06-06T10:14:54Z</time>
      </trkpt>
      <trkpt lat="43.59938" lon="1.16879">
        <ele>269</ele>
        <time>2020-06-06T10:15:16Z</time>
      </trkpt>
      <trkpt lat="43.59925" lon="1.16889">
        <ele>265</ele>
        <time>2020-06-06T10:15:28Z</time>
      </trkpt>
      <trkpt lat="43.59927" lon="1.16911">
        <ele>264</ele>
        <time>2020-06-06T10:15:41Z</time>
      </trkpt>
      <trkpt lat="43.5992" lon="1.16933">
        <ele>261</ele>
        <time>2020-06-06T10:15:55Z</time>
      </trkpt>
      <trkpt lat="43.59907" lon="1.16974">
        <ele>256</ele>
        <time>2020-06-06T10:16:22Z</time>
      </trkpt>
      <trkpt lat="43.59894" lon="1.16976">
        <ele>255</ele>
        <time>2020-06-06T10:16:32Z</time>
      </trkpt>
      <trkpt lat="43.59886" lon="1.16972">
        <ele>255</ele>
        <time>2020-06-06T10:16:40Z</time>
      </trkpt>
      <trkpt lat="43.59878" lon="1.16964">
        <ele>254</ele>
        <time>2020-06-06T10:16:47Z</time>
      </trkpt>
      <trkpt lat="43.59872" lon="1.16957">
        <ele>254</ele>
        <time>2020-06-06T10:16:54Z</time>
      </trkpt>
      <trkpt lat="43.59867" lon="1.1695">
        <ele>253</ele>
        <time>2020-06-06T10:16:59Z</time>
      </trkpt>
      <trkpt lat="43.59854" lon="1.1695">
        <ele>252</ele>
        <time>2020-06-06T10:17:10Z</time>
      </trkpt>
      <trkpt lat="43.59834" lon="1.16944">
        <ele>250</ele>
        <time>2020-06-06T10:17:26Z</time>
      </trkpt>
      <trkpt lat="43.5981" lon="1.16943">
        <ele>248</ele>
        <time>2020-06-06T10:17:46Z</time>
      </trkpt>
      <trkpt lat="43.59783" lon="1.1694">
        <ele>246</ele>
        <time>2020-06-06T10:18:07Z</time>
      </trkpt>
      <trkpt lat="43.59737" lon="1.16937">
        <ele>242</ele>
        <time>2020-06-06T10:18:44Z</time>
      </trkpt>
      <trkpt lat="43.59728" lon="1.16933">
        <ele>241</ele>
        <time>2020-06-06T10:18:52Z</time>
      </trkpt>
      <trkpt lat="43.5972" lon="1.16929">
        <ele>241</ele>
        <time>2020-06-06T10:18:59Z</time>
      </trkpt>
      <trkpt lat="43.5971" lon="1.1693">
        <ele>240</ele>
        <time>2020-06-06T10:19:07Z</time>
      </trkpt>
      <trkpt lat="43.597" lon="1.16928">
        <ele>240</ele>
        <time>2020-06-06T10:19:15Z</time>
      </trkpt>
      <trkpt lat="43.5969" lon="1.16924">
        <ele>239</ele>
        <time>2020-06-06T10:19:23Z</time>
      </trkpt>
      <trkpt lat="43.59681" lon="1.16922">
        <ele>239</ele>
        <time>2020-06-06T10:19:31Z</time>
      </trkpt>
      <trkpt lat="43.59671" lon="1.1692">
        <ele>238</ele>
        <time>2020-06-06T10:19:38Z</time>
      </trkpt>
      <trkpt lat="43.59661" lon="1.16916">
        <ele>238</ele>
        <time>2020-06-06T10:19:47Z</time>
      </trkpt>
      <trkpt lat="43.59652" lon="1.16909">
        <ele>238</ele>
        <time>2020-06-06T10:19:55Z</time>
      </trkpt>
      <trkpt lat="43.59641" lon="1.16907">
        <ele>237</ele>
        <time>2020-06-06T10:20:04Z</time>
      </trkpt>
      <trkpt lat="43.59632" lon="1.16905">
        <ele>237</ele>
        <time>2020-06-06T10:20:11Z</time>
      </trkpt>
      <trkpt lat="43.59624" lon="1.16899">
        <ele>237</ele>
        <time>2020-06-06T10:20:19Z</time>
      </trkpt>
      <trkpt lat="43.59614" lon="1.16898">
        <ele>236</ele>
        <time>2020-06-06T10:20:26Z</time>
      </trkpt>
      <trkpt lat="43.59603" lon="1.16894">
        <ele>235</ele>
        <time>2020-06-06T10:20:35Z</time>
      </trkpt>
      <trkpt lat="43.59594" lon="1.16888">
        <ele>235</ele>
        <time>2020-06-06T10:20:43Z</time>
      </trkpt>
      <trkpt lat="43.59585" lon="1.16883">
        <ele>234</ele>
        <time>2020-06-06T10:20:51Z</time>
      </trkpt>
      <trkpt lat="43.59576" lon="1.16878">
        <ele>234</ele>
        <time>2020-06-06T10:20:59Z</time>
      </trkpt>
      <trkpt lat="43.59566" lon="1.16874">
        <ele>234</ele>
        <time>2020-06-06T10:21:08Z</time>
      </trkpt>
      <trkpt lat="43.59556" lon="1.16871">
        <ele>233</ele>
        <time>2020-06-06T10:21:15Z</time>
      </trkpt>
      <trkpt lat="43.59548" lon="1.16866">
        <ele>232</ele>
        <time>2020-06-06T10:21:23Z</time>
      </trkpt>
      <trkpt lat="43.59539" lon="1.16862">
        <ele>231</ele>
        <time>2020-06-06T10:21:30Z</time>
      </trkpt>
      <trkpt lat="43.59529" lon="1.16859">
        <ele>230</ele>
        <time>2020-06-06T10:21:39Z</time>
      </trkpt>
      <trkpt lat="43.5952" lon="1.16856">
        <ele>230</ele>
        <time>2020-06-06T10:21:46Z</time>
      </trkpt>
      <trkpt lat="43.59511" lon="1.16859">
        <ele>230</ele>
        <time>2020-06-06T10:21:54Z</time>
      </trkpt>
      <trkpt lat="43.59504" lon="1.16873">
        <ele>230</ele>
        <time>2020-06-06T10:22:03Z</time>
      </trkpt>
      <trkpt lat="43.59498" lon="1.16884">
        <ele>230</ele>
        <time>2020-06-06T10:22:11Z</time>
      </trkpt>
      <trkpt lat="43.5949" lon="1.16892">
        <ele>230</ele>
        <time>2020-06-06T10:22:19Z</time>
      </trkpt>
      <trkpt lat="43.59483" lon="1.16902">
        <ele>230</ele>
        <time>2020-06-06T10:22:27Z</time>
      </trkpt>
      <trkpt lat="43.59476" lon="1.16911">
        <ele>230</ele>
        <time>2020-06-06T10:22:35Z</time>
      </trkpt>
      <trkpt lat="43.59469" lon="1.16921">
        <ele>230</ele>
        <time>2020-06-06T10:22:43Z</time>
      </trkpt>
      <trkpt lat="43.59462" lon="1.16929">
        <ele>230</ele>
        <time>2020-06-06T10:22:51Z</time>
      </trkpt>
      <trkpt lat="43.59456" lon="1.16959">
        <ele>229</ele>
        <time>2020-06-06T10:23:09Z</time>
      </trkpt>
      <trkpt lat="43.59447" lon="1.16992">
        <ele>229</ele>
        <time>2020-06-06T10:23:29Z</time>
      </trkpt>
      <trkpt lat="43.59401" lon="1.17027">
        <ele>229</ele>
        <time>2020-06-06T10:24:11Z</time>
      </trkpt>
      <trkpt lat="43.5939" lon="1.17032">
        <ele>229</ele>
        <time>2020-06-06T10:24:20Z</time>
      </trkpt>
      <trkpt lat="43.59381" lon="1.17036">
        <ele>229</ele>
        <time>2020-06-06T10:24:28Z</time>
      </trkpt>
      <trkpt lat="43.59372" lon="1.1704">
        <ele>229</ele>
        <time>2020-06-06T10:24:36Z</time>
      </trkpt>
      <trkpt lat="43.59363" lon="1.17044">
        <ele>229</ele>
        <time>2020-06-06T10:24:43Z</time>
      </trkpt>
      <trkpt lat="43.59352" lon="1.17049">
        <ele>229</ele>
        <time>2020-06-06T10:24:52Z</time>
      </trkpt>
      <trkpt lat="43.59343" lon="1.17053">
        <ele>229</ele>
        <time>2020-06-06T10:25:00Z</time>
      </trkpt>
      <trkpt lat="43.59333" lon="1.17058">
        <ele>229</ele>
        <time>2020-06-06T10:25:08Z</time>
      </trkpt>
      <trkpt lat="43.59322" lon="1.17061">
        <ele>228</ele>
        <time>2020-06-06T10:25:17Z</time>
      </trkpt>
      <trkpt lat="43.59313" lon="1.17063">
        <ele>228</ele>
        <time>2020-06-06T10:25:25Z</time>
      </trkpt>
      <trkpt lat="43.59303" lon="1.17068">
        <ele>228</ele>
        <time>2020-06-06T10:25:33Z</time>
      </trkpt>
      <trkpt lat="43.59296" lon="1.17076">
        <ele>228</ele>
        <time>2020-06-06T10:25:40Z</time>
      </trkpt>
      <trkpt lat="43.59292" lon="1.17061">
        <ele>228</ele>
        <time>2020-06-06T10:25:50Z</time>
      </trkpt>
      <trkpt lat="43.59287" lon="1.17049">
        <ele>229</ele>
        <time>2020-06-06T10:25:57Z</time>
      </trkpt>
      <trkpt lat="43.59281" lon="1.17039">
        <ele>229</ele>
        <time>2020-06-06T10:26:05Z</time>
      </trkpt>
      <trkpt lat="43.59274" lon="1.17031">
        <ele>229</ele>
        <time>2020-06-06T10:26:12Z</time>
      </trkpt>
      <trkpt lat="43.59271" lon="1.17019">
        <ele>229</ele>
        <time>2020-06-06T10:26:20Z</time>
      </trkpt>
      <trkpt lat="43.59267" lon="1.17006">
        <ele>230</ele>
        <time>2020-06-06T10:26:28Z</time>
      </trkpt>
      <trkpt lat="43.59266" lon="1.16997">
        <ele>230</ele>
        <time>2020-06-06T10:26:33Z</time>
      </trkpt>
      <trkpt lat="43.59265" lon="1.16989">
        <ele>230</ele>
        <time>2020-06-06T10:26:38Z</time>
      </trkpt>
      <trkpt lat="43.59263" lon="1.16976">
        <ele>231</ele>
        <time>2020-06-06T10:26:46Z</time>
      </trkpt>
      <trkpt lat="43.59255" lon="1.16945">
        <ele>232</ele>
        <time>2020-06-06T10:27:05Z</time>
      </trkpt>
      <trkpt lat="43.59246" lon="1.16933">
        <ele>232</ele>
        <time>2020-06-06T10:27:15Z</time>
      </trkpt>
      <trkpt lat="43.59238" lon="1.16926">
        <ele>233</ele>
        <time>2020-06-06T10:27:23Z</time>
      </trkpt>
      <trkpt lat="43.59231" lon="1.16918">
        <ele>233</ele>
        <time>2020-06-06T10:27:30Z</time>
      </trkpt>
      <trkpt lat="43.59223" lon="1.16907">
        <ele>233</ele>
        <time>2020-06-06T10:27:39Z</time>
      </trkpt>
      <trkpt lat="43.59218" lon="1.16897">
        <ele>234</ele>
        <time>2020-06-06T10:27:46Z</time>
      </trkpt>
      <trkpt lat="43.59212" lon="1.16885">
        <ele>234</ele>
        <time>2020-06-06T10:27:55Z</time>
      </trkpt>
      <trkpt lat="43.59206" lon="1.16872">
        <ele>235</ele>
        <time>2020-06-06T10:28:04Z</time>
      </trkpt>
      <trkpt lat="43.59201" lon="1.16861">
        <ele>235</ele>
        <time>2020-06-06T10:28:11Z</time>
      </trkpt>
      <trkpt lat="43.59196" lon="1.16853">
        <ele>235</ele>
        <time>2020-06-06T10:28:17Z</time>
      </trkpt>
      <trkpt lat="43.59193" lon="1.16841">
        <ele>236</ele>
        <time>2020-06-06T10:28:24Z</time>
      </trkpt>
      <trkpt lat="43.59187" lon="1.16834">
        <ele>236</ele>
        <time>2020-06-06T10:28:31Z</time>
      </trkpt>
      <trkpt lat="43.59182" lon="1.16823">
        <ele>236</ele>
        <time>2020-06-06T10:28:39Z</time>
      </trkpt>
      <trkpt lat="43.59178" lon="1.1681">
        <ele>237</ele>
        <time>2020-06-06T10:28:47Z</time>
      </trkpt>
      <trkpt lat="43.59173" lon="1.16798">
        <ele>237</ele>
        <time>2020-06-06T10:28:55Z</time>
      </trkpt>
      <trkpt lat="43.5917" lon="1.16785">
        <ele>238</ele>
        <time>2020-06-06T10:29:03Z</time>
      </trkpt>
      <trkpt lat="43.59157" lon="1.16765">
        <ele>239</ele>
        <time>2020-06-06T10:29:18Z</time>
      </trkpt>
      <trkpt lat="43.59153" lon="1.16756">
        <ele>239</ele>
        <time>2020-06-06T10:29:24Z</time>
      </trkpt>
      <trkpt lat="43.59148" lon="1.16747">
        <ele>239</ele>
        <time>2020-06-06T10:29:31Z</time>
      </trkpt>
      <trkpt lat="43.59145" lon="1.16738">
        <ele>240</ele>
        <time>2020-06-06T10:29:37Z</time>
      </trkpt>
      <trkpt lat="43.59141" lon="1.16732">
        <ele>240</ele>
        <time>2020-06-06T10:29:42Z</time>
      </trkpt>
      <trkpt lat="43.59138" lon="1.16725">
        <ele>240</ele>
        <time>2020-06-06T10:29:46Z</time>
      </trkpt>
      <trkpt lat="43.59133" lon="1.16719">
        <ele>240</ele>
        <time>2020-06-06T10:29:52Z</time>
      </trkpt>
      <trkpt lat="43.59131" lon="1.16712">
        <ele>241</ele>
        <time>2020-06-06T10:29:56Z</time>
      </trkpt>
      <trkpt lat="43.59128" lon="1.16704">
        <ele>241</ele>
        <time>2020-06-06T10:30:02Z</time>
      </trkpt>
      <trkpt lat="43.59124" lon="1.16695">
        <ele>241</ele>
        <time>2020-06-06T10:30:07Z</time>
      </trkpt>
      <trkpt lat="43.59119" lon="1.16689">
        <ele>241</ele>
        <time>2020-06-06T10:30:12Z</time>
      </trkpt>
      <trkpt lat="43.59116" lon="1.16682">
        <ele>241</ele>
        <time>2020-06-06T10:30:18Z</time>
      </trkpt>
      <trkpt lat="43.59112" lon="1.16675">
        <ele>241</ele>
        <time>2020-06-06T10:30:22Z</time>
      </trkpt>
      <trkpt lat="43.59109" lon="1.16666">
        <ele>241</ele>
        <time>2020-06-06T10:30:28Z</time>
      </trkpt>
      <trkpt lat="43.59102" lon="1.16655">
        <ele>242</ele>
        <time>2020-06-06T10:30:37Z</time>
      </trkpt>
      <trkpt lat="43.59097" lon="1.1664">
        <ele>242</ele>
        <time>2020-06-06T10:30:46Z</time>
      </trkpt>
      <trkpt lat="43.5909" lon="1.16632">
        <ele>242</ele>
        <time>2020-06-06T10:30:54Z</time>
      </trkpt>
      <trkpt lat="43.59082" lon="1.16618">
        <ele>242</ele>
        <time>2020-06-06T10:31:04Z</time>
      </trkpt>
      <trkpt lat="43.59079" lon="1.16608">
        <ele>242</ele>
        <time>2020-06-06T10:31:10Z</time>
      </trkpt>
      <trkpt lat="43.59075" lon="1.16594">
        <ele>243</ele>
        <time>2020-06-06T10:31:19Z</time>
      </trkpt>
      <trkpt lat="43.59072" lon="1.16585">
        <ele>244</ele>
        <time>2020-06-06T10:31:25Z</time>
      </trkpt>
      <trkpt lat="43.59069" lon="1.16574">
        <ele>244</ele>
        <time>2020-06-06T10:31:32Z</time>
      </trkpt>
      <trkpt lat="43.59067" lon="1.16563">
        <ele>244</ele>
        <time>2020-06-06T10:31:38Z</time>
      </trkpt>
      <trkpt lat="43.59065" lon="1.16552">
        <ele>244</ele>
        <time>2020-06-06T10:31:45Z</time>
      </trkpt>
      <trkpt lat="43.59064" lon="1.1654">
        <ele>245</ele>
        <time>2020-06-06T10:31:52Z</time>
      </trkpt>
      <trkpt lat="43.59062" lon="1.16528">
        <ele>245</ele>
        <time>2020-06-06T10:31:59Z</time>
      </trkpt>
      <trkpt lat="43.5906" lon="1.16517">
        <ele>245</ele>
        <time>2020-06-06T10:32:06Z</time>
      </trkpt>
      <trkpt lat="43.5906" lon="1.16504">
        <ele>245</ele>
        <time>2020-06-06T10:32:13Z</time>
      </trkpt>
      <trkpt lat="43.59057" lon="1.16492">
        <ele>245</ele>
        <time>2020-06-06T10:32:20Z</time>
      </trkpt>
      <trkpt lat="43.59056" lon="1.16481">
        <ele>246</ele>
        <time>2020-06-06T10:32:27Z</time>
      </trkpt>
      <trkpt lat="43.59054" lon="1.16469">
        <ele>246</ele>
        <time>2020-06-06T10:32:34Z</time>
      </trkpt>
      <trkpt lat="43.59051" lon="1.16454">
        <ele>247</ele>
        <time>2020-06-06T10:32:43Z</time>
      </trkpt>
      <trkpt lat="43.59051" lon="1.16442">
        <ele>248</ele>
        <time>2020-06-06T10:32:50Z</time>
      </trkpt>
      <trkpt lat="43.59048" lon="1.1643">
        <ele>248</ele>
        <time>2020-06-06T10:32:57Z</time>
      </trkpt>
      <trkpt lat="43.59047" lon="1.16417">
        <ele>248</ele>
        <time>2020-06-06T10:33:05Z</time>
      </trkpt>
      <trkpt lat="43.59046" lon="1.16403">
        <ele>248</ele>
        <time>2020-06-06T10:33:13Z</time>
      </trkpt>
      <trkpt lat="43.59046" lon="1.16389">
        <ele>248</ele>
        <time>2020-06-06T10:33:21Z</time>
      </trkpt>
      <trkpt lat="43.59046" lon="1.16375">
        <ele>248</ele>
        <time>2020-06-06T10:33:30Z</time>
      </trkpt>
      <trkpt lat="43.59045" lon="1.16362">
        <ele>249</ele>
        <time>2020-06-06T10:33:37Z</time>
      </trkpt>
      <trkpt lat="43.59044" lon="1.16349">
        <ele>249</ele>
        <time>2020-06-06T10:33:45Z</time>
      </trkpt>
      <trkpt lat="43.59044" lon="1.16334">
        <ele>250</ele>
        <time>2020-06-06T10:33:53Z</time>
      </trkpt>
      <trkpt lat="43.59045" lon="1.16322">
        <ele>250</ele>
        <time>2020-06-06T10:34:00Z</time>
      </trkpt>
      <trkpt lat="43.59047" lon="1.16309">
        <ele>250</ele>
        <time>2020-06-06T10:34:08Z</time>
      </trkpt>
      <trkpt lat="43.59049" lon="1.16295">
        <ele>250</ele>
        <time>2020-06-06T10:34:17Z</time>
      </trkpt>
      <trkpt lat="43.59051" lon="1.16283">
        <ele>250</ele>
        <time>2020-06-06T10:34:23Z</time>
      </trkpt>
      <trkpt lat="43.59053" lon="1.16268">
        <ele>250</ele>
        <time>2020-06-06T10:34:32Z</time>
      </trkpt>
      <trkpt lat="43.59054" lon="1.16255">
        <ele>250</ele>
        <time>2020-06-06T10:34:40Z</time>
      </trkpt>
      <trkpt lat="43.59056" lon="1.16241">
        <ele>250</ele>
        <time>2020-06-06T10:34:49Z</time>
      </trkpt>
      <trkpt lat="43.59057" lon="1.16229">
        <ele>251</ele>
        <time>2020-06-06T10:34:56Z</time>
      </trkpt>
      <trkpt lat="43.5906" lon="1.16216">
        <ele>252</ele>
        <time>2020-06-06T10:35:03Z</time>
      </trkpt>
      <trkpt lat="43.59061" lon="1.16206">
        <ele>252</ele>
        <time>2020-06-06T10:35:09Z</time>
      </trkpt>
      <trkpt lat="43.59062" lon="1.16192">
        <ele>253</ele>
        <time>2020-06-06T10:35:18Z</time>
      </trkpt>
      <trkpt lat="43.59063" lon="1.1618">
        <ele>253</ele>
        <time>2020-06-06T10:35:24Z</time>
      </trkpt>
      <trkpt lat="43.59064" lon="1.16168">
        <ele>254</ele>
        <time>2020-06-06T10:35:31Z</time>
      </trkpt>
      <trkpt lat="43.59066" lon="1.16155">
        <ele>254</ele>
        <time>2020-06-06T10:35:39Z</time>
      </trkpt>
      <trkpt lat="43.59067" lon="1.1614">
        <ele>254</ele>
        <time>2020-06-06T10:35:48Z</time>
      </trkpt>
      <trkpt lat="43.59069" lon="1.16114">
        <ele>255</ele>
        <time>2020-06-06T10:36:03Z</time>
      </trkpt>
      <trkpt lat="43.59072" lon="1.16084">
        <ele>256</ele>
        <time>2020-06-06T10:36:21Z</time>
      </trkpt>
      <trkpt lat="43.59073" lon="1.16065">
        <ele>257</ele>
        <time>2020-06-06T10:36:32Z</time>
      </trkpt>
      <trkpt lat="43.59082" lon="1.16048">
        <ele>257</ele>
        <time>2020-06-06T10:36:44Z</time>
      </trkpt>
      <trkpt lat="43.59086" lon="1.16009">
        <ele>258</ele>
        <time>2020-06-06T10:37:07Z</time>
      </trkpt>
      <trkpt lat="43.59088" lon="1.15994">
        <ele>259</ele>
        <time>2020-06-06T10:37:16Z</time>
      </trkpt>
      <trkpt lat="43.59089" lon="1.15983">
        <ele>259</ele>
        <time>2020-06-06T10:37:23Z</time>
      </trkpt>
      <trkpt lat="43.59091" lon="1.15966">
        <ele>260</ele>
        <time>2020-06-06T10:37:32Z</time>
      </trkpt>
      <trkpt lat="43.59092" lon="1.15948">
        <ele>260</ele>
        <time>2020-06-06T10:37:43Z</time>
      </trkpt>
      <trkpt lat="43.59095" lon="1.15936">
        <ele>260</ele>
        <time>2020-06-06T10:37:50Z</time>
      </trkpt>
      <trkpt lat="43.59095" lon="1.15925">
        <ele>260</ele>
        <time>2020-06-06T10:37:57Z</time>
      </trkpt>
      <trkpt lat="43.59098" lon="1.15908">
        <ele>261</ele>
        <time>2020-06-06T10:38:07Z</time>
      </trkpt>
      <trkpt lat="43.59099" lon="1.15892">
        <ele>261</ele>
        <time>2020-06-06T10:38:16Z</time>
      </trkpt>
      <trkpt lat="43.59101" lon="1.15878">
        <ele>261</ele>
        <time>2020-06-06T10:38:25Z</time>
      </trkpt>
      <trkpt lat="43.59102" lon="1.15864">
        <ele>262</ele>
        <time>2020-06-06T10:38:33Z</time>
      </trkpt>
      <trkpt lat="43.59104" lon="1.15854">
        <ele>262</ele>
        <time>2020-06-06T10:38:39Z</time>
      </trkpt>
      <trkpt lat="43.59105" lon="1.15846">
        <ele>262</ele>
        <time>2020-06-06T10:38:44Z</time>
      </trkpt>
      <trkpt lat="43.59106" lon="1.15834">
        <ele>262</ele>
        <time>2020-06-06T10:38:50Z</time>
      </trkpt>
      <trkpt lat="43.59107" lon="1.15826">
        <ele>262</ele>
        <time>2020-06-06T10:38:55Z</time>
      </trkpt>
      <trkpt lat="43.59109" lon="1.15816">
        <ele>263</ele>
        <time>2020-06-06T10:39:01Z</time>
      </trkpt>
      <trkpt lat="43.59112" lon="1.15806">
        <ele>263</ele>
        <time>2020-06-06T10:39:08Z</time>
      </trkpt>
      <trkpt lat="43.59116" lon="1.15784">
        <ele>264</ele>
        <time>2020-06-06T10:39:21Z</time>
      </trkpt>
      <trkpt lat="43.59117" lon="1.15768">
        <ele>264</ele>
        <time>2020-06-06T10:39:30Z</time>
      </trkpt>
      <trkpt lat="43.59119" lon="1.15753">
        <ele>264</ele>
        <time>2020-06-06T10:39:39Z</time>
      </trkpt>
      <trkpt lat="43.59119" lon="1.15739">
        <ele>265</ele>
        <time>2020-06-06T10:39:47Z</time>
      </trkpt>
      <trkpt lat="43.59121" lon="1.15725">
        <ele>265</ele>
        <time>2020-06-06T10:39:55Z</time>
      </trkpt>
      <trkpt lat="43.59122" lon="1.15713">
        <ele>265</ele>
        <time>2020-06-06T10:40:03Z</time>
      </trkpt>
      <trkpt lat="43.59122" lon="1.157">
        <ele>266</ele>
        <time>2020-06-06T10:40:10Z</time>
      </trkpt>
      <trkpt lat="43.59121" lon="1.15686">
        <ele>266</ele>
        <time>2020-06-06T10:40:18Z</time>
      </trkpt>
      <trkpt lat="43.5912" lon="1.15673">
        <ele>267</ele>
        <time>2020-06-06T10:40:26Z</time>
      </trkpt>
      <trkpt lat="43.59119" lon="1.15659">
        <ele>267</ele>
        <time>2020-06-06T10:40:34Z</time>
      </trkpt>
      <trkpt lat="43.59119" lon="1.15647">
        <ele>268</ele>
        <time>2020-06-06T10:40:42Z</time>
      </trkpt>
      <trkpt lat="43.59115" lon="1.15634">
        <ele>268</ele>
        <time>2020-06-06T10:40:49Z</time>
      </trkpt>
      <trkpt lat="43.59115" lon="1.15621">
        <ele>269</ele>
        <time>2020-06-06T10:40:57Z</time>
      </trkpt>
      <trkpt lat="43.59114" lon="1.15608">
        <ele>269</ele>
        <time>2020-06-06T10:41:05Z</time>
      </trkpt>
      <trkpt lat="43.59117" lon="1.15594">
        <ele>271</ele>
        <time>2020-06-06T10:41:13Z</time>
      </trkpt>
      <trkpt lat="43.59114" lon="1.15582">
        <ele>271</ele>
        <time>2020-06-06T10:41:21Z</time>
      </trkpt>
      <trkpt lat="43.59113" lon="1.15569">
        <ele>272</ele>
        <time>2020-06-06T10:41:28Z</time>
      </trkpt>
      <trkpt lat="43.59114" lon="1.15555">
        <ele>273</ele>
        <time>2020-06-06T10:41:36Z</time>
      </trkpt>
      <trkpt lat="43.59096" lon="1.15425">
        <ele>281</ele>
        <time>2020-06-06T10:42:53Z</time>
      </trkpt>
      <trkpt lat="43.59097" lon="1.15413">
        <ele>282</ele>
        <time>2020-06-06T10:43:01Z</time>
      </trkpt>
      <trkpt lat="43.59098" lon="1.154">
        <ele>283</ele>
        <time>2020-06-06T10:43:08Z</time>
      </trkpt>
      <trkpt lat="43.59098" lon="1.15387">
        <ele>284</ele>
        <time>2020-06-06T10:43:16Z</time>
      </trkpt>
      <trkpt lat="43.59089" lon="1.15389">
        <ele>284</ele>
        <time>2020-06-06T10:43:23Z</time>
      </trkpt>
      <trkpt lat="43.59089" lon="1.15376">
        <ele>284</ele>
        <time>2020-06-06T10:43:31Z</time>
      </trkpt>
      <trkpt lat="43.59089" lon="1.15363">
        <ele>285</ele>
        <time>2020-06-06T10:43:38Z</time>
      </trkpt>
      <trkpt lat="43.5909" lon="1.15351">
        <ele>286</ele>
        <time>2020-06-06T10:43:46Z</time>
      </trkpt>
      <trkpt lat="43.59083" lon="1.15341">
        <ele>286</ele>
        <time>2020-06-06T10:43:53Z</time>
      </trkpt>
      <trkpt lat="43.59035" lon="1.15308">
        <ele>294</ele>
        <time>2020-06-06T10:44:36Z</time>
      </trkpt>
    </trkseg>
  </trk>
</gpx>